createdAt,value
2018-12-06T00:00:06.717Z,100463.11
2018-12-06T00:02:35.670Z,100467.11
2018-12-06T00:05:05.165Z,100468.66
2018-12-06T00:07:34.534Z,100458.09
2018-12-06T00:10:03.504Z,100466.92
2018-12-06T00:12:32.405Z,100471.92
2018-12-06T00:15:40.661Z,100473.98
2018-12-06T00:18:09.615Z,100474.68
2018-12-06T00:20:38.559Z,100465.48
2018-12-06T00:23:07.490Z,100475.77
2018-12-06T00:25:36.444Z,100479.67
2018-12-06T00:28:05.461Z,100471.02
2018-12-06T00:30:36.766Z,100473.77
2018-12-06T00:33:05.908Z,100473.33
2018-12-06T00:35:34.852Z,100473.08
2018-12-06T00:38:04.028Z,100473.08
2018-12-06T00:40:32.945Z,100473.66
2018-12-06T00:43:04.784Z,100476.73
2018-12-06T00:45:33.805Z,100476.37
2018-12-06T00:48:02.781Z,100478.47
2018-12-06T00:50:31.673Z,100480.25
2018-12-06T00:53:00.481Z,100487.16
2018-12-06T00:55:29.394Z,100485.72
2018-12-06T00:57:58.319Z,100479.70
2018-12-06T01:00:27.365Z,100480.25
2018-12-06T01:02:56.413Z,100482.75
2018-12-06T01:05:25.349Z,100485.72
2018-12-06T01:07:54.261Z,100484.76
2018-12-06T01:10:23.079Z,100478.98
2018-12-06T01:12:52.068Z,100477.17
2018-12-06T01:15:20.983Z,100478.94
2018-12-06T01:17:52.803Z,100476.64
2018-12-06T01:20:21.609Z,100475.27
2018-12-06T01:22:50.609Z,100471.86
2018-12-06T01:25:19.621Z,100469.19
2018-12-06T01:27:48.439Z,100471.55
2018-12-06T01:30:17.338Z,100464.97
2018-12-06T01:32:46.213Z,100469.45
2018-12-06T01:35:15.006Z,100469.12
2018-12-06T01:37:43.881Z,100468.22
2018-12-06T01:40:13.033Z,100469.78
2018-12-06T01:42:42.025Z,100473.03
2018-12-06T01:45:10.928Z,100474.30
2018-12-06T01:47:39.932Z,100468.05
2018-12-06T01:50:09.722Z,100467.48
2018-12-06T01:52:38.616Z,100462.27
2018-12-06T01:55:07.608Z,100466.18
2018-12-06T01:57:36.494Z,100465.25
2018-12-06T02:00:06.297Z,100463.36
2018-12-06T02:02:35.193Z,100473.09
2018-12-06T02:05:04.485Z,100469.50
2018-12-06T02:07:33.476Z,100471.67
2018-12-06T02:10:02.628Z,100469.22
2018-12-06T02:12:31.613Z,100472.52
2018-12-06T02:15:00.428Z,100474.59
2018-12-06T02:17:29.289Z,100472.36
2018-12-06T02:19:58.084Z,100468.75
2018-12-06T02:22:26.980Z,100469.56
2018-12-06T02:24:55.865Z,100470.09
2018-12-06T02:27:24.777Z,100474.72
2018-12-06T02:29:53.689Z,100466.06
2018-12-06T02:32:23.702Z,100472.80
2018-12-06T02:34:52.506Z,100468.90
2018-12-06T02:37:21.535Z,100470.70
2018-12-06T02:39:50.473Z,100464.53
2018-12-06T02:42:19.414Z,100467.70
2018-12-06T02:44:48.206Z,100463.30
2018-12-06T02:47:17.121Z,100461.16
2018-12-06T02:49:45.988Z,100463.45
2018-12-06T02:52:14.914Z,100457.09
2018-12-06T02:54:43.830Z,100458.77
2018-12-06T02:57:12.718Z,100458.25
2018-12-06T02:59:41.622Z,100455.73
2018-12-06T03:02:10.513Z,100451.27
2018-12-06T03:04:39.316Z,100451.89
2018-12-06T03:07:08.201Z,100457.00
2018-12-06T03:09:37.116Z,100455.05
2018-12-06T03:12:05.962Z,100452.78
2018-12-06T03:14:34.799Z,100448.25
2018-12-06T03:17:03.817Z,100451.52
2018-12-06T03:19:32.913Z,100452.84
2018-12-06T03:22:01.816Z,100449.38
2018-12-06T03:24:30.802Z,100442.43
2018-12-06T03:26:59.907Z,100446.55
2018-12-06T03:29:29.213Z,100455.09
2018-12-06T03:31:58.205Z,100458.80
2018-12-06T03:34:27.225Z,100462.16
2018-12-06T03:36:56.240Z,100463.78
2018-12-06T03:39:25.054Z,100467.89
2018-12-06T03:41:53.998Z,100468.47
2018-12-06T03:44:23.866Z,100467.11
2018-12-06T03:46:52.806Z,100470.06
2018-12-06T03:49:21.786Z,100465.02
2018-12-06T03:51:50.710Z,100472.20
2018-12-06T03:54:19.626Z,100470.80
2018-12-06T03:56:48.817Z,100473.94
2018-12-06T03:59:17.745Z,100475.81
2018-12-06T04:01:46.536Z,100475.11
2018-12-06T04:04:15.422Z,100475.52
2018-12-06T04:06:44.203Z,100479.02
2018-12-06T04:09:13.269Z,100474.52
2018-12-06T04:11:42.366Z,100475.47
2018-12-06T04:14:11.293Z,100478.88
2018-12-06T04:16:40.221Z,100484.61
2018-12-06T04:19:09.148Z,100484.15
2018-12-06T04:21:38.069Z,100488.30
2018-12-06T04:24:06.986Z,100486.67
2018-12-06T04:26:35.818Z,100484.26
2018-12-06T04:29:05.235Z,100489.36
2018-12-06T04:31:36.340Z,100487.86
2018-12-06T04:34:05.375Z,100497.78
2018-12-06T04:36:34.279Z,100500.99
2018-12-06T04:39:05.454Z,100500.18
2018-12-06T04:41:34.525Z,100501.13
2018-12-06T04:44:03.486Z,100502.38
2018-12-06T04:46:32.415Z,100507.15
2018-12-06T04:49:01.450Z,100510.41
2018-12-06T04:51:30.488Z,100517.78
2018-12-06T04:53:59.402Z,100516.37
2018-12-06T04:56:28.343Z,100521.09
2018-12-06T04:58:57.376Z,100523.12
2018-12-06T05:01:26.386Z,100528.17
2018-12-06T05:03:55.721Z,100527.95
2018-12-06T05:06:24.747Z,100534.88
2018-12-06T05:08:53.566Z,100526.68
2018-12-06T05:11:22.597Z,100528.85
2018-12-06T05:13:51.509Z,100534.66
2018-12-06T05:16:20.349Z,100534.47
2018-12-06T05:18:49.273Z,100538.42
2018-12-06T05:21:18.392Z,100540.72
2018-12-06T05:23:47.177Z,100538.86
2018-12-06T05:26:15.990Z,100539.16
2018-12-06T05:28:44.954Z,100538.42
2018-12-06T05:31:13.877Z,100545.03
2018-12-06T05:33:42.814Z,100551.03
2018-12-06T05:36:11.693Z,100556.38
2018-12-06T05:38:41.743Z,100558.53
2018-12-06T05:41:10.970Z,100556.74
2018-12-06T05:43:39.892Z,100561.83
2018-12-06T05:46:08.847Z,100560.09
2018-12-06T05:48:37.944Z,100560.81
2018-12-06T05:51:06.897Z,100554.17
2018-12-06T05:53:35.730Z,100554.63
2018-12-06T05:56:04.598Z,100560.84
2018-12-06T05:58:33.717Z,100564.11
2018-12-06T06:01:02.645Z,100564.70
2018-12-06T06:03:31.534Z,100568.90
2018-12-06T06:06:00.436Z,100567.27
2018-12-06T06:08:29.416Z,100578.64
2018-12-06T06:10:58.440Z,100576.45
2018-12-06T06:13:27.331Z,100574.63
2018-12-06T06:15:56.255Z,100583.16
2018-12-06T06:18:25.165Z,100581.61
2018-12-06T06:20:54.086Z,100580.80
2018-12-06T06:23:23.100Z,100582.73
2018-12-06T06:25:52.553Z,100586.42
2018-12-06T06:28:21.505Z,100582.96
2018-12-06T06:30:50.433Z,100584.54
2018-12-06T06:33:19.249Z,100592.59
2018-12-06T06:35:48.189Z,100589.91
2018-12-06T06:38:17.106Z,100589.24
2018-12-06T06:40:46.034Z,100594.67
2018-12-06T06:43:14.822Z,100598.66
2018-12-06T06:45:43.720Z,100604.34
2018-12-06T06:48:12.661Z,100598.58
2018-12-06T06:50:41.617Z,100597.97
2018-12-06T06:53:10.549Z,100601.36
2018-12-06T06:55:39.482Z,100597.28
2018-12-06T06:58:08.373Z,100597.42
2018-12-06T07:00:37.277Z,100604.27
2018-12-06T07:03:06.483Z,100598.58
2018-12-06T07:05:35.431Z,100608.29
2018-12-06T07:08:04.413Z,100607.27
2018-12-06T07:10:33.363Z,100606.77
2018-12-06T07:13:02.284Z,100600.30
2018-12-06T07:15:31.197Z,100601.66
2018-12-06T07:18:00.089Z,100602.85
2018-12-06T07:20:28.891Z,100609.39
2018-12-06T07:22:57.705Z,100614.23
2018-12-06T07:25:26.764Z,100610.41
2018-12-06T07:27:55.781Z,100606.19
2018-12-06T07:30:24.714Z,100608.19
2018-12-06T07:32:53.705Z,100607.70
2018-12-06T07:35:22.657Z,100608.62
2018-12-06T07:37:51.665Z,100607.27
2018-12-06T07:40:20.597Z,100606.86
2018-12-06T07:42:49.588Z,100605.98
2018-12-06T07:45:18.466Z,100606.27
2018-12-06T07:47:47.617Z,100606.27
2018-12-06T07:50:16.450Z,100604.94
2018-12-06T07:52:45.348Z,100606.69
2018-12-06T07:55:14.353Z,100608.12
2018-12-06T07:57:43.278Z,100612.47
2018-12-06T08:00:12.133Z,100606.87
2018-12-06T08:02:41.139Z,100601.80
2018-12-06T08:05:10.222Z,100603.91
2018-12-06T08:07:39.009Z,100605.09
2018-12-06T08:10:08.582Z,100604.16
2018-12-06T08:12:37.597Z,100603.66
2018-12-06T08:15:07.109Z,100603.95
2018-12-06T08:17:36.116Z,100606.79
2018-12-06T08:20:06.162Z,100608.52
2018-12-06T08:22:35.086Z,100611.20
2018-12-06T08:25:04.381Z,100608.53
2018-12-06T08:27:34.306Z,100612.06
2018-12-06T08:30:03.857Z,100608.66
2018-12-06T08:32:32.901Z,100606.89
2018-12-06T08:35:01.849Z,100612.55
2018-12-06T08:37:30.851Z,100603.06
2018-12-06T08:39:59.868Z,100612.94
2018-12-06T08:42:28.842Z,100610.37
2018-12-06T08:44:57.778Z,100602.48
2018-12-06T08:47:26.765Z,100607.53
2018-12-06T08:49:55.567Z,100606.80
2018-12-06T08:52:24.596Z,100599.52
2018-12-06T08:54:53.494Z,100604.14
2018-12-06T08:57:22.435Z,100598.92
2018-12-06T08:59:51.530Z,100591.26
2018-12-06T09:02:20.313Z,100592.96
2018-12-06T09:04:49.146Z,100594.55
2018-12-06T09:07:18.025Z,100594.94
2018-12-06T09:09:46.932Z,100596.27
2018-12-06T09:12:15.766Z,100590.72
2018-12-06T09:14:44.577Z,100584.49
2018-12-06T09:17:13.553Z,100583.95
2018-12-06T09:19:42.515Z,100578.76
2018-12-06T09:22:11.444Z,100576.20
2018-12-06T09:24:40.479Z,100573.81
2018-12-06T09:27:09.338Z,100575.55
2018-12-06T09:29:38.317Z,100575.00
2018-12-06T09:32:07.284Z,100568.08
2018-12-06T09:34:36.345Z,100565.59
2018-12-06T09:37:05.234Z,100568.36
2018-12-06T09:39:34.458Z,100567.38
2018-12-06T09:42:03.427Z,100569.88
2018-12-06T09:44:32.474Z,100568.80
2018-12-06T09:47:01.765Z,100569.63
2018-12-06T09:49:30.706Z,100569.20
2018-12-06T09:51:59.520Z,100566.42
2018-12-06T09:54:28.446Z,100565.77
2018-12-06T09:56:57.337Z,100564.99
2018-12-06T09:59:26.265Z,100561.09
2018-12-06T10:01:55.234Z,100554.70
2018-12-06T10:04:24.145Z,100546.21
2018-12-06T10:06:53.158Z,100554.53
2018-12-06T10:09:22.726Z,100542.36
2018-12-06T10:11:51.637Z,100540.11
2018-12-06T10:14:20.545Z,100539.08
2018-12-06T10:16:49.404Z,100532.22
2018-12-06T10:19:18.343Z,100529.27
2018-12-06T10:21:47.213Z,100538.19
2018-12-06T10:24:16.145Z,100530.12
2018-12-06T10:26:45.076Z,100530.51
2018-12-06T10:29:14.063Z,100529.02
2018-12-06T10:31:43.239Z,100527.22
2018-12-06T10:34:12.185Z,100524.97
2018-12-06T10:36:41.203Z,100522.13
2018-12-06T10:39:10.193Z,100533.36
2018-12-06T10:41:39.110Z,100526.47
2018-12-06T10:44:08.097Z,100514.80
2018-12-06T10:46:37.104Z,100511.33
2018-12-06T10:49:06.096Z,100514.25
2018-12-06T10:51:42.487Z,100503.37
2018-12-06T10:54:11.312Z,100509.73
2018-12-06T10:56:40.234Z,100505.42
2018-12-06T10:59:09.291Z,100503.22
2018-12-06T11:01:43.522Z,100499.56
2018-12-06T11:04:12.367Z,100500.46
2018-12-06T11:06:41.301Z,100503.34
2018-12-06T11:09:10.270Z,100502.00
2018-12-06T11:11:39.173Z,100500.73
2018-12-06T11:14:08.114Z,100502.19
2018-12-06T11:16:36.983Z,100497.11
2018-12-06T11:19:05.874Z,100501.26
2018-12-06T11:21:34.818Z,100497.73
2018-12-06T11:24:03.892Z,100487.09
2018-12-06T11:26:32.846Z,100479.89
2018-12-06T11:29:02.021Z,100482.34
2018-12-06T11:31:31.065Z,100482.50
2018-12-06T11:33:59.972Z,100478.47
2018-12-06T11:36:28.769Z,100483.02
2018-12-06T11:38:57.692Z,100476.39
2018-12-06T11:41:27.580Z,100477.41
2018-12-06T11:43:56.506Z,100473.56
2018-12-06T11:46:25.442Z,100468.81
2018-12-06T11:48:54.509Z,100472.59
2018-12-06T11:51:23.555Z,100471.24
2018-12-06T11:53:52.535Z,100460.06
2018-12-06T11:56:21.459Z,100460.33
2018-12-06T11:58:50.483Z,100468.66
2018-12-06T12:01:19.315Z,100471.33
2018-12-06T12:03:48.403Z,100470.83
2018-12-06T12:06:17.296Z,100467.08
2018-12-06T12:08:46.192Z,100470.25
2018-12-06T12:11:15.104Z,100470.55
2018-12-06T12:13:44.014Z,100474.42
2018-12-06T12:16:13.030Z,100472.69
2018-12-06T12:18:42.037Z,100465.55
2018-12-06T12:21:11.283Z,100465.19
2018-12-06T12:23:40.184Z,100459.09
2018-12-06T12:26:09.303Z,100462.94
2018-12-06T12:28:38.537Z,100468.77
2018-12-06T12:31:07.757Z,100461.84
2018-12-06T12:33:36.813Z,100459.83
2018-12-06T12:36:05.706Z,100461.89
2018-12-06T12:38:34.631Z,100462.26
2018-12-06T12:41:03.738Z,100461.17
2018-12-06T12:43:32.676Z,100455.34
2018-12-06T12:46:01.674Z,100462.98
2018-12-06T12:48:30.696Z,100463.44
2018-12-06T12:50:59.617Z,100466.22
2018-12-06T12:53:28.618Z,100462.14
2018-12-06T12:55:57.666Z,100455.98
2018-12-06T12:58:26.670Z,100454.94
2018-12-06T13:00:55.697Z,100465.88
2018-12-06T13:03:24.518Z,100458.48
2018-12-06T13:05:53.615Z,100452.91
2018-12-06T13:08:22.654Z,100447.47
2018-12-06T13:10:51.552Z,100447.91
2018-12-06T13:13:20.888Z,100448.39
2018-12-06T13:15:49.802Z,100444.31
2018-12-06T13:18:18.729Z,100442.00
2018-12-06T13:20:47.809Z,100445.27
2018-12-06T13:23:17.284Z,100448.16
2018-12-06T13:25:46.202Z,100448.89
2018-12-06T13:28:15.000Z,100450.67
2018-12-06T13:30:44.345Z,100448.46
2018-12-06T13:33:13.439Z,100440.64
2018-12-06T13:35:42.537Z,100447.27
2018-12-06T13:38:11.737Z,100446.90
2018-12-06T13:40:40.954Z,100449.03
2018-12-06T13:43:10.223Z,100450.05
2018-12-06T13:45:39.339Z,100447.91
2018-12-06T13:48:09.082Z,100456.45
2018-12-06T13:50:38.131Z,100459.70
2018-12-06T13:53:07.425Z,100459.03
2018-12-06T13:55:36.572Z,100459.16
2018-12-06T13:58:05.459Z,100462.17
2018-12-06T14:00:34.440Z,100457.06
2018-12-06T14:03:04.402Z,100463.61
2018-12-06T14:05:34.130Z,100464.98
2018-12-06T14:08:03.415Z,100461.50
2018-12-06T14:10:32.734Z,100465.75
2018-12-06T14:13:01.769Z,100465.44
2018-12-06T14:15:31.215Z,100463.67
2018-12-06T14:18:00.973Z,100466.34
2018-12-06T14:20:30.738Z,100462.50
2018-12-06T14:22:59.773Z,100458.16
2018-12-06T14:25:29.208Z,100459.55
2018-12-06T14:27:58.611Z,100457.19
2018-12-06T14:30:28.241Z,100458.74
2018-12-06T14:32:57.788Z,100458.86
2018-12-06T14:35:27.325Z,100458.52
2018-12-06T14:37:56.325Z,100454.80
2018-12-06T14:40:25.282Z,100460.38
2018-12-06T14:42:54.504Z,100462.62
2018-12-06T14:45:23.470Z,100460.54
2018-12-06T14:47:52.386Z,100459.91
2018-12-06T14:50:21.500Z,100462.48
2018-12-06T14:52:50.910Z,100458.86
2018-12-06T14:55:19.836Z,100461.06
2018-12-06T14:57:48.955Z,100466.63
2018-12-06T15:00:18.679Z,100466.95
2018-12-06T15:02:47.919Z,100467.55
2018-12-06T15:05:17.446Z,100469.06
2018-12-06T15:07:46.974Z,100470.38
2018-12-06T15:10:15.890Z,100460.63
2018-12-06T15:12:45.078Z,100460.22
2018-12-06T15:15:14.342Z,100458.86
2018-12-06T15:17:43.525Z,100462.48
2018-12-06T15:20:13.246Z,100459.38
2018-12-06T15:22:42.653Z,100455.62
2018-12-06T15:25:11.905Z,100462.01
2018-12-06T15:27:41.886Z,100461.55
2018-12-06T15:30:10.954Z,100464.75
2018-12-06T15:32:44.893Z,100471.50
2018-12-06T15:35:15.762Z,100466.20
2018-12-06T15:37:45.062Z,100472.75
2018-12-06T15:40:14.661Z,100469.77
2018-12-06T15:42:46.745Z,100465.93
2018-12-06T15:45:15.690Z,100474.19
2018-12-06T15:47:44.743Z,100482.34
2018-12-06T15:50:14.094Z,100486.32
2018-12-06T15:52:43.514Z,100488.19
2018-12-06T15:55:12.913Z,100493.32
2018-12-06T15:57:42.601Z,100494.52
2018-12-06T16:00:12.742Z,100490.56
2018-12-06T16:02:41.834Z,100492.11
2018-12-06T16:05:11.682Z,100493.39
2018-12-06T16:07:40.656Z,100493.81
2018-12-06T16:10:10.413Z,100495.60
2018-12-06T16:12:39.558Z,100498.22
2018-12-06T16:15:08.782Z,100497.36
2018-12-06T16:17:37.951Z,100494.30
2018-12-06T16:20:08.921Z,100499.62
2018-12-06T16:22:38.174Z,100492.67
2018-12-06T16:25:07.590Z,100504.38
2018-12-06T16:27:36.610Z,100513.84
2018-12-06T16:30:07.754Z,100513.30
2018-12-06T16:32:37.053Z,100522.48
2018-12-06T16:35:07.081Z,100524.66
2018-12-06T16:37:36.338Z,100531.70
2018-12-06T16:40:06.409Z,100537.30
2018-12-06T16:42:36.190Z,100538.27
2018-12-06T16:45:06.584Z,100545.52
2018-12-06T16:47:36.288Z,100549.52
2018-12-06T16:50:07.268Z,100550.44
2018-12-06T16:52:36.616Z,100554.25
2018-12-06T16:55:06.704Z,100556.91
2018-12-06T16:57:35.929Z,100559.13
2018-12-06T17:00:08.031Z,100558.64
2018-12-06T17:02:36.970Z,100565.66
2018-12-06T17:05:06.050Z,100564.35
2018-12-06T17:07:34.952Z,100564.75
2018-12-06T17:10:04.944Z,100563.10
2018-12-06T17:12:34.730Z,100561.36
2018-12-06T17:15:04.309Z,100559.59
2018-12-06T17:17:33.226Z,100559.94
2018-12-06T17:20:02.302Z,100561.78
2018-12-06T17:22:31.710Z,100565.13
2018-12-06T17:25:00.702Z,100562.34
2018-12-06T17:27:29.802Z,100560.58
2018-12-06T17:29:59.198Z,100562.73
2018-12-06T17:32:28.145Z,100567.53
2018-12-06T17:34:57.147Z,100568.77
2018-12-06T17:37:26.058Z,100565.27
2018-12-06T17:39:55.486Z,100564.52
2018-12-06T17:42:24.392Z,100563.52
2018-12-06T17:44:53.402Z,100564.92
2018-12-06T17:47:22.223Z,100566.61
2018-12-06T17:49:51.413Z,100565.74
2018-12-06T17:52:20.355Z,100571.33
2018-12-06T17:54:49.387Z,100573.07
2018-12-06T17:57:18.189Z,100580.89
2018-12-06T17:59:47.081Z,100583.06
2018-12-06T18:02:16.779Z,100582.35
2018-12-06T18:04:46.103Z,100580.22
2018-12-06T18:07:14.999Z,100580.66
2018-12-06T18:09:44.202Z,100583.34
2018-12-06T18:12:13.513Z,100588.12
2018-12-06T18:14:42.605Z,100586.78
2018-12-06T18:17:11.881Z,100597.59
2018-12-06T18:19:40.811Z,100595.88
2018-12-06T18:22:09.917Z,100597.64
2018-12-06T18:24:38.837Z,100596.75
2018-12-06T18:27:08.152Z,100595.48
2018-12-06T18:29:40.374Z,100598.50
2018-12-06T18:32:09.424Z,100594.65
2018-12-06T18:34:38.450Z,100595.50
2018-12-06T18:37:07.490Z,100604.15
2018-12-06T18:39:36.525Z,100603.75
2018-12-06T18:42:05.672Z,100602.44
2018-12-06T18:44:34.795Z,100595.47
2018-12-06T18:47:03.797Z,100593.74
2018-12-06T18:49:32.821Z,100593.74
2018-12-06T18:52:01.729Z,100598.97
2018-12-06T18:54:30.767Z,100598.08
2018-12-06T18:56:59.789Z,100597.20
2018-12-06T18:59:29.162Z,100602.44
2018-12-06T19:01:58.243Z,100592.47
2018-12-06T19:05:32.197Z,100592.84
2018-12-06T19:08:01.129Z,100595.06
2018-12-06T19:10:30.193Z,100592.89
2018-12-06T19:12:59.644Z,100587.72
2018-12-06T19:15:29.428Z,100589.91
2018-12-06T19:17:59.265Z,100588.59
2018-12-06T19:20:29.930Z,100589.48
2018-12-06T19:22:59.693Z,100589.48
2018-12-06T19:25:29.423Z,100593.75
2018-12-06T19:27:59.271Z,100592.93
2018-12-06T19:30:28.387Z,100600.72
2018-12-06T19:33:03.157Z,100600.73
2018-12-06T19:35:29.989Z,100595.95
2018-12-06T19:37:59.244Z,100592.94
2018-12-06T19:40:28.717Z,100591.63
2018-12-06T19:42:57.844Z,100595.97
2018-12-06T19:45:26.752Z,100592.50
2018-12-06T19:47:55.969Z,100599.87
2018-12-06T19:50:25.820Z,100597.27
2018-12-06T19:52:55.125Z,100592.94
2018-12-06T19:55:24.507Z,100592.94
2018-12-06T19:57:54.318Z,100596.39
2018-12-06T20:00:23.529Z,100595.10
2018-12-06T20:02:52.585Z,100586.89
2018-12-06T20:05:21.621Z,100587.75
2018-12-06T20:07:50.733Z,100584.74
2018-12-06T20:10:19.821Z,100581.72
2018-12-06T20:12:50.197Z,100588.63
2018-12-06T20:15:19.159Z,100594.66
2018-12-06T20:17:48.295Z,100596.82
2018-12-06T20:20:23.553Z,100599.87
2018-12-06T20:22:48.482Z,100600.72
2018-12-06T20:25:17.722Z,100599.87
2018-12-06T20:27:46.809Z,100601.59
2018-12-06T20:30:15.851Z,100603.34
2018-12-06T20:32:44.869Z,100606.79
2018-12-06T20:35:13.814Z,100607.20
2018-12-06T20:37:42.869Z,100606.34
2018-12-06T20:40:12.800Z,100606.34
2018-12-06T20:42:42.612Z,100608.94
2018-12-06T20:45:11.624Z,100608.95
2018-12-06T20:47:40.734Z,100605.47
2018-12-06T20:50:09.704Z,100600.31
2018-12-06T20:52:38.758Z,100604.62
2018-12-06T20:55:07.938Z,100608.08
2018-12-06T20:57:37.624Z,100613.70
2018-12-06T21:00:07.117Z,100613.28
2018-12-06T21:02:36.125Z,100608.94
2018-12-06T21:05:05.133Z,100611.10
2018-12-06T21:07:36.801Z,100608.91
2018-12-06T21:10:05.892Z,100606.35
2018-12-06T21:12:34.846Z,100605.91
2018-12-06T21:15:04.569Z,100610.59
2018-12-06T21:17:33.798Z,100614.53
2018-12-06T21:20:02.897Z,100603.33
2018-12-06T21:22:32.249Z,100610.25
2018-12-06T21:25:01.181Z,100605.05
2018-12-06T21:27:30.235Z,100607.19
2018-12-06T21:29:59.510Z,100595.92
2018-12-06T21:32:28.842Z,100599.84
2018-12-06T21:34:57.974Z,100604.59
2018-12-06T21:37:27.005Z,100594.22
2018-12-06T21:39:56.239Z,100594.25
2018-12-06T21:42:25.178Z,100597.27
2018-12-06T21:44:54.258Z,100599.83
2018-12-06T21:47:25.968Z,100598.09
2018-12-06T21:49:55.237Z,100606.77
2018-12-06T21:52:24.194Z,100608.48
2018-12-06T21:54:53.113Z,100605.05
2018-12-06T21:57:22.157Z,100603.33
2018-12-06T21:59:51.565Z,100604.58
2018-12-06T22:02:24.389Z,100609.39
2018-12-06T22:04:53.434Z,100615.00
2018-12-06T22:07:22.724Z,100602.44
2018-12-06T22:09:51.878Z,100605.91
2018-12-06T22:12:21.301Z,100605.48
2018-12-06T22:14:50.381Z,100608.08
2018-12-06T22:17:19.322Z,100603.77
2018-12-06T22:19:48.337Z,100614.13
2018-12-06T22:22:17.453Z,100618.46
2018-12-06T22:24:46.426Z,100615.44
2018-12-06T22:27:15.451Z,100606.34
2018-12-06T22:29:44.350Z,100605.05
2018-12-06T22:32:13.382Z,100604.17
2018-12-06T22:34:42.368Z,100607.22
2018-12-06T22:37:11.390Z,100601.59
2018-12-06T22:39:40.430Z,100600.73
2018-12-06T22:42:09.453Z,100601.59
2018-12-06T22:44:38.482Z,100594.22
2018-12-06T22:47:07.564Z,100592.94
2018-12-06T22:49:36.584Z,100595.53
2018-12-06T22:52:05.548Z,100602.45
2018-12-06T22:54:34.507Z,100601.59
2018-12-06T22:57:03.541Z,100592.05
2018-12-06T22:59:32.632Z,100588.61
2018-12-06T23:02:01.691Z,100589.93
2018-12-06T23:04:30.602Z,100585.60
2018-12-06T23:06:59.527Z,100585.15
2018-12-06T23:09:28.457Z,100585.16
2018-12-06T23:11:57.472Z,100581.70
2018-12-06T23:14:26.497Z,100579.08
2018-12-06T23:16:55.561Z,100574.77
2018-12-06T23:19:24.574Z,100576.53
2018-12-06T23:21:53.494Z,100575.22
2018-12-06T23:24:22.989Z,100575.17
2018-12-06T23:26:51.912Z,100578.25
2018-12-06T23:29:20.938Z,100573.92
2018-12-06T23:31:49.866Z,100576.06
2018-12-06T23:34:18.916Z,100573.51
2018-12-06T23:36:47.823Z,100569.16
2018-12-06T23:39:16.937Z,100573.48
2018-12-06T23:41:45.846Z,100574.79
2018-12-06T23:44:14.886Z,100576.47
2018-12-06T23:46:43.877Z,100574.70
2018-12-06T23:49:12.833Z,100575.19
2018-12-06T23:51:41.879Z,100571.71
2018-12-06T23:54:10.894Z,100573.83
2018-12-06T23:56:39.802Z,100567.41
2018-12-06T23:59:08.854Z,100573.89
